logo
Search for airport 
image banner adimage banner adimage banner ad
image banner ad

EDRA - Bad Neuenahr-Ahrweiler

Located in Bad Neuenahr, Germany

ICAO - EDRA, IATA -

Data provided by Airmate  

General information

Coordinates: N50°33'28" E7°8'14"
Elevation is 672 feet MSL.
Magnetic variation is 3.0000° East
Rated:
View ratings:
[VIEW]
View others Airports in Rhineland-Palatinate

Operational data

Special qualification required
Current time UTC:
Current local time:
Weather at : EDDK - Koeln/Bonn ( 34 km )
METAR: EDDK 141750Z AUTO 36003KT 340V040 CAVOK 22/13 Q1013 NOSIG
TAF: TAF EDDK 141700Z 1418/1524 VRB03KT CAVOK BECMG 1508/1511 11007KT TEMPO 1518/1521 SHRA BKN040CB PROB30 TEMPO 1518/1521 TSRA BKN040CB
View NOTAMs / SUP AIP / TFR affecting this airport [VIEW]
Communications frequencies: [VIEW]

Runways:

RWY identifierQFULength (ft)Width (ft)SurfaceLDA (ft)
10105°164049ASPH1640
28285°164049ASPH1640

Airport contact information

Address: Bad Neuenahr Germany

Satellite view of EDRA